Time;durP1;ratioP1;P1;durP2;ratioP2;P2;SDS_P1;SDS_P2;PMS_P1;PMS_P2;Temp;Humidity;BMP_temperature;BMP_pressure;BME280_temperature;BME280_humidity;BME280_pressure;Samples;Min_cycle;Max_cycle;Signal;HPM_P1;HPM_P2
2021/04/17 00:02:08;;;;;;;9.57;7.32;;;;;;;17.31;31.24;102871.78;5037445;28;20049;-79
2021/04/17 00:04:38;;;;;;;7.60;6.43;;;;;;;17.30;31.21;102872.88;5037213;28;20040;-79
2021/04/17 00:07:04;;;;;;;9.88;7.20;;;;;;;17.25;31.25;102867.47;5054920;28;20045;-78
2021/04/17 00:09:29;;;;;;;12.32;7.40;;;;;;;17.24;31.29;102872.19;5054345;28;20064;-79
2021/04/17 00:11:59;;;;;;;13.15;7.93;;;;;;;17.23;31.30;102869.72;5054917;28;20029;-79
2021/04/17 00:14:33;;;;;;;8.90;7.00;;;;;;;17.17;31.52;102867.06;5054920;28;20031;-79
2021/04/17 00:17:00;;;;;;;10.25;7.70;;;;;;;17.19;31.35;102870.34;5054793;28;20033;-78
2021/04/17 00:19:25;;;;;;;9.30;6.97;;;;;;;17.12;31.58;102867.16;5037243;28;20079;-79
2021/04/17 00:21:51;;;;;;;10.45;7.05;;;;;;;17.10;31.40;102866.66;5054717;28;20029;-79
2021/04/17 00:24:17;;;;;;;9.52;7.13;;;;;;;17.05;31.67;102865.91;5035989;28;20072;-79
2021/04/17 00:26:43;;;;;;;11.95;8.15;;;;;;;17.01;31.55;102871.25;5035555;28;20098;-78
2021/04/17 00:29:09;;;;;;;10.18;7.10;;;;;;;16.99;31.90;102873.47;5054407;28;20025;-79
2021/04/17 00:31:37;;;;;;;10.65;7.78;;;;;;;16.97;31.67;102872.16;5054221;28;20035;-79
2021/04/17 00:34:04;;;;;;;11.18;7.88;;;;;;;16.96;31.66;102865.00;5054598;28;20598;-78
2021/04/17 00:36:29;;;;;;;9.05;6.90;;;;;;;16.91;31.62;102863.13;5036856;28;20036;-79
2021/04/17 00:38:55;;;;;;;10.30;7.88;;;;;;;16.90;31.70;102867.03;5036789;28;20029;-79
2021/04/17 00:41:21;;;;;;;10.23;7.90;;;;;;;16.87;31.83;102868.47;5054408;28;20033;-78
2021/04/17 00:43:47;;;;;;;12.25;7.35;;;;;;;16.86;31.68;102874.28;5054115;28;20081;-78
2021/04/17 00:46:13;;;;;;;12.73;8.10;;;;;;;16.84;31.80;102873.75;5053398;28;20419;-78
2021/04/17 00:48:41;;;;;;;12.05;7.68;;;;;;;16.82;31.87;102870.50;5054128;28;20053;-79
2021/04/17 00:51:08;;;;;;;9.43;7.85;;;;;;;16.78;31.71;102869.47;5036455;28;20029;-78
2021/04/17 00:53:33;;;;;;;12.02;7.93;;;;;;;16.72;32.08;102868.75;5054206;28;20493;-78
2021/04/17 00:56:04;;;;;;;10.93;7.60;;;;;;;16.66;32.05;102867.16;5054215;28;20033;-78
2021/04/17 00:58:30;;;;;;;10.55;8.57;;;;;;;16.65;32.05;102866.34;5053471;28;20111;-78
2021/04/17 01:00:55;;;;;;;9.80;7.55;;;;;;;16.59;31.92;102866.72;5053304;28;20160;-78
2021/04/17 01:03:33;;;;;;;14.38;7.93;;;;;;;16.49;32.08;102862.22;5053585;28;20032;-78
2021/04/17 01:06:13;;;;;;;10.63;7.93;;;;;;;16.38;32.15;102864.28;5053791;28;20020;-78
2021/04/17 01:08:58;;;;;;;10.80;8.35;;;;;;;16.41;32.20;102871.19;5036932;28;20033;-79
2021/04/17 01:11:39;;;;;;;12.65;7.57;;;;;;;16.31;32.18;102861.09;5035848;28;20029;-78
2021/04/17 01:14:06;;;;;;;10.82;8.65;;;;;;;16.24;32.32;102854.31;5053819;28;20029;-78
2021/04/17 01:16:33;;;;;;;11.15;7.72;;;;;;;16.16;32.31;102858.59;5053757;28;20033;-78
2021/04/17 01:19:00;;;;;;;9.23;8.00;;;;;;;16.16;32.38;102855.00;5053676;28;20025;-78
2021/04/17 01:21:28;;;;;;;10.63;8.70;;;;;;;16.08;32.47;102862.03;5052590;28;20043;-78
2021/04/17 01:24:00;;;;;;;14.43;9.80;;;;;;;16.10;32.48;102865.31;5053174;28;20033;-78
2021/04/17 01:26:26;;;;;;;12.88;9.50;;;;;;;16.08;32.63;102856.50;5052381;28;20379;-78
2021/04/17 01:28:56;;;;;;;14.25;9.38;;;;;;;16.08;32.35;102857.31;5053095;28;20032;-78
2021/04/17 01:31:28;;;;;;;16.83;10.10;;;;;;;16.09;32.38;102855.38;5053011;28;20033;-78
2021/04/17 01:33:57;;;;;;;15.60;9.60;;;;;;;16.09;32.51;102863.66;5052794;28;20112;-78
2021/04/17 01:36:23;;;;;;;13.82;9.45;;;;;;;16.05;32.59;102857.94;5050526;28;20031;-78
2021/04/17 01:38:54;;;;;;;15.32;9.55;;;;;;;16.00;32.66;102860.75;5052950;28;20021;-78
2021/04/17 01:41:35;;;;;;;17.17;9.48;;;;;;;16.02;32.55;102852.19;5053016;28;20021;-78
2021/04/17 01:44:06;;;;;;;13.52;10.20;;;;;;;16.09;32.43;102850.69;5034749;28;20043;-78
2021/04/17 01:46:39;;;;;;;11.70;8.77;;;;;;;16.12;32.41;102856.75;5052772;28;20656;-78
2021/04/17 01:49:08;;;;;;;11.48;9.68;;;;;;;16.08;32.47;102856.50;5052682;28;20521;-78
2021/04/17 01:51:38;;;;;;;10.90;9.35;;;;;;;16.05;32.45;102855.19;5053033;28;20029;-78
2021/04/17 01:54:09;;;;;;;10.70;8.75;;;;;;;16.02;32.54;102853.03;5052885;28;20047;-78
2021/04/17 01:56:36;;;;;;;13.38;10.05;;;;;;;15.94;32.58;102845.41;5035120;28;20025;-78
2021/04/17 01:59:02;;;;;;;13.30;10.32;;;;;;;15.92;32.49;102857.84;5052847;28;20053;-78
2021/04/17 02:01:29;;;;;;;13.13;9.30;;;;;;;15.85;32.81;102852.72;5052755;28;20032;-78
2021/04/17 02:03:54;;;;;;;13.57;9.93;;;;;;;15.87;32.83;102847.75;5068298;28;20037;-78
2021/04/17 02:06:20;;;;;;;14.85;9.52;;;;;;;15.94;32.44;102850.91;5052701;28;20055;-79
2021/04/17 02:08:46;;;;;;;14.05;9.93;;;;;;;15.93;32.53;102843.75;5052798;28;20040;-78
2021/04/17 02:11:12;;;;;;;14.98;10.25;;;;;;;15.95;32.69;102836.03;5068011;28;20414;-78
2021/04/17 02:13:39;;;;;;;13.20;10.00;;;;;;;15.92;32.53;102835.78;5034720;28;20025;-78
2021/04/17 02:16:10;;;;;;;14.65;10.02;;;;;;;15.91;32.70;102834.97;5067981;28;20075;-78
2021/04/17 02:18:59;;;;;;;16.38;10.18;;;;;;;15.86;32.73;102834.22;5067870;28;20040;-78
2021/04/17 02:21:37;;;;;;;12.35;9.52;;;;;;;15.85;32.56;102838.94;5052665;28;20052;-78
2021/04/17 02:24:08;;;;;;;13.73;10.07;;;;;;;15.83;32.63;102838.41;5051323;28;20033;-77
2021/04/17 02:26:36;;;;;;;12.52;9.65;;;;;;;15.82;32.82;102834.03;5052531;28;20461;-78
2021/04/17 02:29:03;;;;;;;17.27;10.00;;;;;;;15.77;32.70;102840.41;5052528;28;20063;-78
2021/04/17 02:31:29;;;;;;;14.05;10.35;;;;;;;15.74;32.33;102834.69;5052550;28;20386;-79
2021/04/17 02:33:58;;;;;;;12.25;9.32;;;;;;;15.72;32.65;102837.75;5055913;28;20166;-78
2021/04/17 02:36:24;;;;;;;12.20;10.35;;;;;;;15.71;32.74;102829.75;5056530;28;20037;-78
2021/04/17 02:38:50;;;;;;;11.88;9.52;;;;;;;15.68;32.60;102833.94;5072050;28;20033;-78
2021/04/17 02:41:16;;;;;;;14.13;9.10;;;;;;;15.65;32.47;102837.28;5056128;28;20032;-78
2021/04/17 02:43:42;;;;;;;13.63;9.82;;;;;;;15.62;32.60;102831.53;5056398;28;20041;-78
2021/04/17 02:46:10;;;;;;;12.63;9.38;;;;;;;15.61;32.41;102835.38;5056056;28;20104;-79
2021/04/17 02:48:36;;;;;;;12.27;8.32;;;;;;;15.47;32.65;102844.38;5056179;28;20067;-78
2021/04/17 02:51:03;;;;;;;15.20;8.93;;;;;;;15.43;32.78;102839.75;5056232;28;20021;-78
2021/04/17 02:53:28;;;;;;;13.15;9.30;;;;;;;15.29;32.95;102850.66;5056276;28;20029;-78
2021/04/17 02:55:54;;;;;;;12.60;9.18;;;;;;;15.34;32.85;102852.53;5055704;28;20079;-78
2021/04/17 02:58:21;;;;;;;13.40;9.43;;;;;;;15.35;32.71;102849.50;5056312;28;20466;-78
2021/04/17 03:00:46;;;;;;;13.85;8.90;;;;;;;15.33;32.68;102846.19;5056093;28;20029;-78
2021/04/17 03:03:12;;;;;;;11.27;8.48;;;;;;;15.29;32.90;102852.59;5038149;28;20048;-78
2021/04/17 03:05:38;;;;;;;12.35;9.27;;;;;;;15.26;32.74;102854.00;5056107;28;20040;-78
2021/04/17 03:08:04;;;;;;;9.32;8.32;;;;;;;15.24;32.75;102861.72;5056031;28;20390;-78
2021/04/17 03:10:30;;;;;;;10.50;8.82;;;;;;;15.23;32.67;102860.91;5055983;28;20037;-78
2021/04/17 03:12:56;;;;;;;11.77;9.00;;;;;;;15.19;32.72;102859.06;5055828;28;20033;-78
2021/04/17 03:15:22;;;;;;;10.70;8.48;;;;;;;15.16;32.57;102856.88;5055807;28;20040;-78
2021/04/17 03:17:48;;;;;;;12.00;8.95;;;;;;;15.10;32.78;102863.53;5055808;28;20087;-78
2021/04/17 03:20:14;;;;;;;13.25;8.65;;;;;;;15.07;32.76;102858.63;5055717;28;20487;-78
2021/04/17 03:22:39;;;;;;;13.35;8.40;;;;;;;14.93;32.76;102864.81;5055702;28;20025;-78
2021/04/17 03:25:09;;;;;;;10.98;8.27;;;;;;;14.88;32.79;102867.63;5055547;28;20036;-78
2021/04/17 03:27:35;;;;;;;21.75;10.48;;;;;;;14.83;32.92;102867.69;5055651;28;20033;-78
2021/04/17 03:30:02;;;;;;;12.18;7.30;;;;;;;14.82;32.77;102857.78;5070888;28;20059;-78
2021/04/17 03:32:28;;;;;;;12.13;7.90;;;;;;;14.79;32.74;102863.84;5055474;28;20104;-77
2021/04/17 03:34:54;;;;;;;11.25;8.20;;;;;;;14.72;32.84;102866.13;5055523;28;20017;-78
2021/04/17 03:37:19;;;;;;;13.65;8.60;;;;;;;14.65;32.92;102874.72;5055425;28;20463;-78
2021/04/17 03:39:45;;;;;;;11.95;8.45;;;;;;;14.62;32.94;102860.72;5055337;28;20099;-77
2021/04/17 03:42:10;;;;;;;10.63;8.43;;;;;;;14.62;32.72;102858.78;5054010;28;20498;-77
2021/04/17 03:44:36;;;;;;;11.93;8.93;;;;;;;14.64;32.70;102856.56;5069408;28;20036;-78
2021/04/17 03:47:02;;;;;;;11.60;8.02;;;;;;;14.65;32.68;102854.63;5055223;28;20029;-78
2021/04/17 03:49:27;;;;;;;10.75;8.15;;;;;;;14.58;32.71;102862.41;5055096;28;20060;-78
2021/04/17 03:51:53;;;;;;;14.27;9.13;;;;;;;14.48;32.78;102863.31;5055045;28;20061;-77
2021/04/17 03:54:19;;;;;;;13.23;8.15;;;;;;;14.51;32.82;102861.91;5055103;28;20025;-77
2021/04/17 03:56:45;;;;;;;14.57;8.30;;;;;;;14.49;32.65;102864.13;5055139;28;20485;-78
2021/04/17 03:59:10;;;;;;;10.55;7.90;;;;;;;14.49;32.38;102861.38;5037059;28;20025;-77
2021/04/17 04:01:36;;;;;;;11.75;7.30;;;;;;;14.44;32.74;102864.97;5054842;28;20025;-77
2021/04/17 04:04:01;;;;;;;12.13;7.90;;;;;;;14.46;32.65;102865.53;5053670;28;20635;-77
2021/04/17 04:06:27;;;;;;;15.70;6.93;;;;;;;14.43;32.69;102866.91;5054408;28;20398;-78
2021/04/17 04:08:53;;;;;;;11.07;7.30;;;;;;;14.46;32.62;102867.47;5054765;28;20108;-78
2021/04/17 04:11:19;;;;;;;11.45;7.18;;;;;;;14.44;32.56;102862.22;5054883;28;20036;-77
2021/04/17 04:13:45;;;;;;;11.25;6.78;;;;;;;14.40;32.61;102861.97;5054785;28;20037;-78
2021/04/17 04:16:11;;;;;;;8.95;6.28;;;;;;;14.42;32.54;102865.25;5054740;28;20055;-77
2021/04/17 04:18:36;;;;;;;10.27;6.07;;;;;;;14.40;32.72;102861.16;5054627;28;20040;-77
2021/04/17 04:21:02;;;;;;;9.98;6.60;;;;;;;14.40;32.67;102856.47;5054407;28;20359;-77
2021/04/17 04:23:28;;;;;;;7.32;5.25;;;;;;;14.43;32.54;102864.16;5054403;28;20040;-77
2021/04/17 04:25:53;;;;;;;9.52;6.10;;;;;;;14.38;32.57;102861.44;5054472;28;20033;-77
2021/04/17 04:28:19;;;;;;;11.75;6.53;;;;;;;14.41;32.67;102855.34;5054525;28;20033;-77
2021/04/17 04:30:46;;;;;;;8.85;5.38;;;;;;;14.43;32.60;102849.56;5054484;28;20021;-77
2021/04/17 04:33:11;;;;;;;7.63;5.43;;;;;;;14.50;32.39;102852.84;5054133;28;20386;-77
2021/04/17 04:35:37;;;;;;;9.48;6.40;;;;;;;14.52;32.43;102853.38;5054196;28;20035;-77
2021/04/17 04:38:03;;;;;;;8.68;6.20;;;;;;;14.52;32.39;102855.31;5054383;28;20033;-78
2021/04/17 04:40:28;;;;;;;9.32;5.22;;;;;;;14.55;32.40;102850.06;5052994;28;20033;-78
2021/04/17 04:42:54;;;;;;;9.93;5.47;;;;;;;14.58;32.34;102856.91;5054429;28;20496;-78
2021/04/17 04:45:19;;;;;;;11.82;6.07;;;;;;;14.59;32.38;102855.81;5054345;28;20029;-78
2021/04/17 04:47:45;;;;;;;12.90;6.18;;;;;;;14.57;32.15;102853.31;5054197;28;20411;-78
2021/04/17 04:50:11;;;;;;;10.57;5.70;;;;;;;14.56;32.37;102859.13;5054505;28;20029;-78
2021/04/17 04:52:37;;;;;;;7.60;5.35;;;;;;;14.60;32.06;102854.69;5054323;28;20091;-78
2021/04/17 04:55:04;;;;;;;10.57;5.07;;;;;;;14.56;32.09;102848.13;5069324;28;20037;-78
2021/04/17 04:57:30;;;;;;;6.53;5.13;;;;;;;14.56;32.01;102851.69;5054205;28;20033;-77
2021/04/17 04:59:55;;;;;;;7.38;4.90;;;;;;;14.52;32.17;102850.63;5054293;28;20486;-78
2021/04/17 05:02:21;;;;;;;10.98;5.45;;;;;;;14.52;32.21;102856.16;5053793;28;20147;-78
2021/04/17 05:04:47;;;;;;;10.40;6.22;;;;;;;14.47;32.02;102847.09;5053860;28;20041;-77
2021/04/17 05:07:12;;;;;;;9.18;6.00;;;;;;;14.39;32.20;102849.34;5053855;28;20032;-78
2021/04/17 05:09:38;;;;;;;9.60;6.22;;;;;;;14.43;32.26;102846.81;5053999;28;20025;-78
2021/04/17 05:12:05;;;;;;;6.70;5.40;;;;;;;14.43;32.13;102844.91;5053807;28;20025;-77
2021/04/17 05:14:30;;;;;;;8.70;6.47;;;;;;;14.29;32.28;102846.69;5053603;28;20044;-78
2021/04/17 05:16:56;;;;;;;8.23;4.90;;;;;;;14.08;32.70;102846.00;5053529;28;20103;-78
2021/04/17 05:19:21;;;;;;;8.25;6.13;;;;;;;14.19;32.67;102840.41;5053640;28;20028;-78
2021/04/17 05:21:47;;;;;;;17.38;7.25;;;;;;;14.12;32.60;102847.06;5053465;28;20020;-78
2021/04/17 05:24:13;;;;;;;8.65;5.82;;;;;;;14.28;32.31;102841.44;5052237;28;20021;-78
2021/04/17 05:26:38;;;;;;;15.70;5.70;;;;;;;14.28;32.47;102844.19;5053488;28;20585;-77
2021/04/17 05:29:05;;;;;;;10.65;5.05;;;;;;;14.33;32.23;102839.47;5053273;28;20020;-78
2021/04/17 05:31:31;;;;;;;8.25;4.65;;;;;;;14.32;32.29;102840.59;5053224;28;20021;-77
2021/04/17 05:33:57;;;;;;;9.23;5.65;;;;;;;14.34;32.29;102843.88;5053314;28;20549;-77
2021/04/17 05:36:22;;;;;;;9.77;5.47;;;;;;;14.38;32.23;102844.13;5053456;28;20063;-77
2021/04/17 05:38:51;;;;;;;8.73;5.93;;;;;;;14.43;32.17;102844.91;5052245;28;20025;-77
2021/04/17 05:41:17;;;;;;;14.45;5.35;;;;;;;14.38;32.21;102841.38;5052181;28;20029;-77
2021/04/17 05:43:42;;;;;;;9.32;5.38;;;;;;;14.43;32.33;102842.16;5052403;28;20017;-77
2021/04/17 05:46:08;;;;;;;11.10;5.88;;;;;;;14.39;32.26;102838.34;5052746;28;20025;-77
2021/04/17 05:48:33;;;;;;;6.93;5.65;;;;;;;14.52;32.21;102833.31;5052312;28;20072;-77
2021/04/17 05:50:59;;;;;;;9.38;5.22;;;;;;;14.56;32.07;102837.94;5052011;28;20063;-78
2021/04/17 05:53:25;;;;;;;12.18;5.43;;;;;;;14.64;31.80;102842.00;5052786;28;20025;-77
2021/04/17 05:55:51;;;;;;;6.20;5.03;;;;;;;14.72;32.05;102835.84;5053064;28;20033;-88
2021/04/17 05:58:16;;;;;;;11.07;5.70;;;;;;;14.64;32.22;102834.56;5052932;28;20025;-86
2021/04/17 06:00:42;;;;;;;11.00;5.80;;;;;;;14.76;32.12;102831.44;5052957;28;20024;-77
2021/04/17 06:03:08;;;;;;;7.80;5.75;;;;;;;14.86;31.96;102833.25;5052231;28;20111;-78
2021/04/17 06:05:33;;;;;;;10.75;5.97;;;;;;;14.87;32.08;102832.94;5052358;28;20029;-79
2021/04/17 06:07:59;;;;;;;10.07;7.40;;;;;;;15.00;32.08;102834.19;5052267;28;20028;-79
2021/04/17 06:10:24;;;;;;;12.20;5.38;;;;;;;14.99;32.16;102836.13;5052064;28;20387;-79
2021/04/17 06:12:50;;;;;;;7.50;5.43;;;;;;;15.07;32.04;102828.34;5050676;28;20021;-80
2021/04/17 06:15:16;;;;;;;10.45;6.50;;;;;;;15.14;32.00;102837.91;5051302;28;20364;-81
2021/04/17 06:17:42;;;;;;;8.00;5.50;;;;;;;15.25;32.02;102838.59;5051680;28;20472;-80
2021/04/17 06:20:08;;;;;;;19.58;5.95;;;;;;;15.24;32.07;102836.94;5051908;28;20450;-81
2021/04/17 06:22:34;;;;;;;11.25;4.55;;;;;;;15.30;32.06;102838.53;5052137;28;20029;-83
2021/04/17 06:24:59;;;;;;;11.07;6.05;;;;;;;15.45;31.90;102837.53;5033909;28;20391;-80
2021/04/17 06:27:25;;;;;;;10.70;5.70;;;;;;;15.59;31.89;102832.94;5032498;28;20017;-77
2021/04/17 06:29:51;;;;;;;9.50;5.28;;;;;;;15.67;31.65;102835.06;5051200;28;20017;-76
2021/04/17 06:32:18;;;;;;;10.10;5.80;;;;;;;15.69;31.82;102840.25;5034542;28;20035;-84
2021/04/17 06:34:44;;;;;;;8.02;4.90;;;;;;;15.85;31.60;102841.69;5034802;28;20017;-79
2021/04/17 06:37:09;;;;;;;7.22;5.05;;;;;;;15.85;31.73;102838.94;5051356;28;20029;-77
2021/04/17 06:39:35;;;;;;;10.60;5.75;;;;;;;16.00;31.46;102838.69;5054842;28;20040;-80
2021/04/17 06:42:03;;;;;;;9.38;5.68;;;;;;;16.05;31.63;102852.41;5059198;28;20067;-78
2021/04/17 06:44:31;;;;;;;9.50;5.65;;;;;;;16.16;31.37;102842.03;5059844;28;20095;-78
2021/04/17 06:46:58;;;;;;;10.35;6.22;;;;;;;16.28;31.60;102844.34;5041571;28;20025;-77
2021/04/17 06:49:26;;;;;;;8.30;5.85;;;;;;;16.26;31.43;102847.41;5045851;28;20061;-76
2021/04/17 06:51:55;;;;;;;6.53;5.13;;;;;;;16.52;31.25;102841.47;5049585;28;20026;-81
2021/04/17 06:54:22;;;;;;;6.50;4.75;;;;;;;16.62;31.16;102847.63;5050546;28;20391;-80
2021/04/17 06:56:51;;;;;;;7.03;5.00;;;;;;;16.65;31.22;102844.25;5033577;28;20048;-77
2021/04/17 06:59:17;;;;;;;10.98;6.97;;;;;;;16.83;31.11;102852.81;5038448;28;20467;-77
2021/04/17 07:01:43;;;;;;;8.57;5.72;;;;;;;16.94;31.20;102851.50;5035635;28;20162;-77
2021/04/17 07:04:09;;;;;;;7.05;4.80;;;;;;;17.08;30.99;102852.34;5035010;28;20094;-78
2021/04/17 07:06:35;;;;;;;11.00;5.75;;;;;;;17.14;31.04;102859.38;5039063;28;20117;-77
2021/04/17 07:09:02;;;;;;;12.38;5.65;;;;;;;17.25;30.84;102861.94;5036021;28;20018;-75
2021/04/17 07:11:28;;;;;;;9.68;5.80;;;;;;;17.38;30.99;102858.34;5035021;28;20032;-76
2021/04/17 07:14:04;;;;;;;13.98;6.95;;;;;;;17.36;31.11;102857.84;5045959;28;20024;-81
2021/04/17 07:16:30;;;;;;;9.25;5.38;;;;;;;17.68;30.64;102849.44;5050298;28;20033;-80
2021/04/17 07:18:55;;;;;;;11.23;5.35;;;;;;;17.86;30.55;102844.09;5044424;28;20609;-86
2021/04/17 07:21:22;;;;;;;10.20;5.60;;;;;;;17.95;30.58;102848.56;5038435;28;20032;-84
2021/04/17 07:23:49;;;;;;;10.60;5.95;;;;;;;18.10;30.26;102847.38;5039073;28;20163;-81
2021/04/17 07:26:18;;;;;;;12.57;6.25;;;;;;;18.23;30.47;102845.69;5053711;28;20021;-85
2021/04/17 07:28:59;;;;;;;8.93;5.47;;;;;;;18.27;30.53;102847.50;5057602;28;20032;-85
2021/04/17 07:31:27;;;;;;;11.32;5.40;;;;;;;18.43;30.68;102836.88;5045553;28;20043;-77
2021/04/17 07:33:53;;;;;;;6.97;4.75;;;;;;;18.61;30.27;102826.72;5057428;28;20028;-78
2021/04/17 07:36:21;;;;;;;9.02;4.22;;;;;;;18.76;30.02;102833.84;5058455;28;20081;-79
2021/04/17 07:38:47;;;;;;;10.35;5.80;;;;;;;18.88;30.08;102824.94;5051816;28;20020;-79
2021/04/17 07:41:17;;;;;;;7.15;4.95;;;;;;;19.03;29.64;102827.28;5038959;28;20021;-82
2021/04/17 07:43:46;;;;;;;5.32;4.15;;;;;;;19.10;29.47;102822.91;5037008;28;20479;-78
2021/04/17 07:46:12;;;;;;;9.95;5.75;;;;;;;18.96;29.73;102826.91;5041049;28;20028;-77
2021/04/17 07:48:38;;;;;;;13.48;5.40;;;;;;;19.21;29.59;102822.63;5052702;28;20372;-77
2021/04/17 07:51:06;;;;;;;9.65;5.20;;;;;;;19.46;29.36;102826.59;5054996;28;20036;-78
2021/04/17 07:53:34;;;;;;;7.35;5.00;;;;;;;19.50;29.51;102820.09;5048315;28;20728;-84
2021/04/17 07:56:33;;;;;;;9.85;4.75;;;;;;;19.61;29.18;102817.84;5033453;28;20471;-78
2021/04/17 07:59:08;;;;;;;6.18;4.82;;;;;;;19.72;29.09;102808.06;5049329;28;20025;-82
2021/04/17 08:01:34;;;;;;;15.48;5.43;;;;;;;19.76;28.97;102814.59;5029343;28;20131;-79
2021/04/17 08:04:01;;;;;;;12.00;4.82;;;;;;;19.80;28.80;102818.38;5051018;28;20025;-79
2021/04/17 08:06:28;;;;;;;7.15;4.20;;;;;;;20.00;28.39;102802.19;5032613;28;20053;-82
2021/04/17 08:08:58;;;;;;;9.13;4.80;;;;;;;20.05;28.36;102808.41;5033043;28;20467;-81
2021/04/17 08:11:27;;;;;;;10.52;4.78;;;;;;;20.30;27.76;102803.94;5049763;28;20045;-81
2021/04/17 08:13:53;;;;;;;9.98;4.72;;;;;;;20.27;27.80;102804.63;5050361;28;20074;-80
2021/04/17 08:16:19;;;;;;;4.07;3.03;;;;;;;20.41;27.44;102805.25;5031078;28;20037;-80
2021/04/17 08:18:46;;;;;;;16.75;5.93;;;;;;;20.33;27.01;102803.31;5032468;28;20029;-82
2021/04/17 08:21:15;;;;;;;13.82;5.00;;;;;;;20.59;26.73;102805.22;5049939;28;20037;-82
2021/04/17 08:23:46;;;;;;;10.18;3.67;;;;;;;20.80;26.42;102802.53;5048803;28;20104;-81
2021/04/17 08:26:13;;;;;;;10.02;3.47;;;;;;;20.73;26.18;102809.41;5050600;28;20115;-80
2021/04/17 08:28:43;;;;;;;9.75;4.75;;;;;;;20.90;26.51;102804.94;5031099;28;20407;-82
2021/04/17 08:31:31;;;;;;;6.53;3.53;;;;;;;20.89;25.25;102797.75;5025472;28;20040;-81
2021/04/17 08:34:14;;;;;;;6.15;3.33;;;;;;;21.04;25.31;102806.34;5047026;28;20039;-83
2021/04/17 08:37:04;;;;;;;7.70;3.90;;;;;;;21.11;25.37;102793.88;5029803;28;20091;-82
2021/04/17 08:39:36;;;;;;;9.30;4.20;;;;;;;21.28;25.03;102802.16;5028910;28;20035;-76
2021/04/17 08:42:03;;;;;;;9.27;2.83;;;;;;;21.31;24.86;102802.31;5047755;28;20531;-78
2021/04/17 08:44:33;;;;;;;11.98;3.53;;;;;;;21.37;24.28;102805.69;5030283;28;20585;-80
2021/04/17 08:47:05;;;;;;;11.20;3.17;;;;;;;21.16;23.92;102804.78;5049847;28;20503;-78
2021/04/17 08:49:32;;;;;;;6.60;2.67;;;;;;;21.57;23.88;102806.88;5047382;28;20037;-77
2021/04/17 08:52:20;;;;;;;7.85;2.95;;;;;;;21.57;23.96;102804.09;5032186;28;20447;-83
2021/04/17 08:55:01;;;;;;;32.80;4.80;;;;;;;21.64;23.30;102809.13;5031267;28;20025;-79
2021/04/17 08:57:27;;;;;;;6.50;2.28;;;;;;;21.72;23.59;102802.66;5047125;28;20430;-79
2021/04/17 08:59:58;;;;;;;5.43;2.67;;;;;;;21.85;23.28;102804.38;5049445;28;20029;-76
2021/04/17 09:02:26;;;;;;;13.52;3.22;;;;;;;21.97;23.39;102815.53;5031297;28;20017;-77
2021/04/17 09:05:07;;;;;;;6.35;2.97;;;;;;;21.89;22.87;102802.53;5032279;28;20025;-83
2021/04/17 09:07:37;;;;;;;7.50;2.70;;;;;;;22.00;22.82;102812.09;5046093;28;20109;-76
2021/04/17 09:10:22;;;;;;;5.07;2.97;;;;;;;22.10;21.50;102802.53;5049536;28;20017;-74
2021/04/17 09:13:07;;;;;;;9.13;2.92;;;;;;;22.08;22.17;102796.50;5029249;28;20036;-78
2021/04/17 09:15:53;;;;;;;10.65;3.05;;;;;;;22.13;21.27;102797.09;5048228;28;20044;-78
2021/04/17 09:18:38;;;;;;;5.45;3.33;;;;;;;22.28;21.45;102800.38;5030565;28;20028;-82
2021/04/17 09:21:09;;;;;;;6.20;2.35;;;;;;;22.39;21.50;102801.59;5031396;28;20025;-75
2021/04/17 09:23:41;;;;;;;9.10;3.95;;;;;;;22.38;21.36;102791.59;5030220;28;20025;-74
2021/04/17 09:26:08;;;;;;;13.23;2.67;;;;;;;22.59;21.30;102789.53;5028602;28;20037;-72
2021/04/17 09:28:37;;;;;;;5.13;2.15;;;;;;;22.75;20.67;102786.91;5030816;28;20044;-77
2021/04/17 09:31:04;;;;;;;8.82;2.92;;;;;;;22.79;21.40;102787.84;5048921;28;20048;-77
2021/04/17 09:33:30;;;;;;;5.20;2.65;;;;;;;23.00;21.62;102792.53;5031211;28;20078;-76
2021/04/17 09:35:55;;;;;;;24.00;6.15;;;;;;;22.67;22.37;102793.38;5031269;28;20033;-79
2021/04/17 09:38:24;;;;;;;3.97;2.33;;;;;;;22.93;22.19;102788.34;5030188;28;21303;-76
2021/04/17 09:40:54;;;;;;;4.78;2.53;;;;;;;23.03;22.65;102786.25;5028583;28;20040;-75
2021/04/17 09:43:26;;;;;;;12.63;3.80;;;;;;;23.19;22.05;102779.59;5030396;28;20542;-74
2021/04/17 09:45:53;;;;;;;5.50;2.83;;;;;;;23.10;22.38;102783.69;5048340;28;20052;-74
2021/04/17 09:48:21;;;;;;;10.25;3.25;;;;;;;23.12;21.71;102779.38;5048152;28;20131;-74
2021/04/17 09:50:49;;;;;;;7.78;2.67;;;;;;;23.17;21.53;102768.00;5028377;28;20126;-74
2021/04/17 09:53:22;;;;;;;5.43;2.40;;;;;;;23.34;21.55;102771.69;5048368;28;20021;-74
2021/04/17 09:56:00;;;;;;;93.53;13.00;;;;;;;23.23;21.79;102763.81;5028177;28;20837;-74
2021/04/17 09:58:30;;;;;;;11.23;2.55;;;;;;;23.21;22.39;102773.69;5030821;28;20485;-73
2021/04/17 10:01:05;;;;;;;10.52;2.60;;;;;;;23.53;21.98;102764.31;5047508;28;20044;-74
2021/04/17 10:03:32;;;;;;;43.47;10.00;;;;;;;23.32;22.39;102762.84;5048070;28;20024;-75
2021/04/17 10:05:59;;;;;;;7.97;3.45;;;;;;;23.26;22.49;102765.88;5048440;28;20500;-75
2021/04/17 10:08:26;;;;;;;6.35;2.85;;;;;;;23.56;22.39;102764.78;5029619;28;20464;-77
2021/04/17 10:10:52;;;;;;;6.13;3.15;;;;;;;23.45;22.36;102759.69;5014380;28;20049;-78
2021/04/17 10:13:38;;;;;;;9.20;2.45;;;;;;;23.26;22.93;102756.69;5048301;28;20025;-80
2021/04/17 10:16:05;;;;;;;6.47;2.92;;;;;;;23.58;22.57;102754.91;5048602;28;20492;-77
2021/04/17 10:18:32;;;;;;;12.65;3.42;;;;;;;23.32;22.69;102758.09;5030310;28;20040;-77
2021/04/17 10:20:58;;;;;;;9.20;2.80;;;;;;;23.51;22.59;102749.91;5048608;28;20048;-79
2021/04/17 10:23:23;;;;;;;8.25;4.30;;;;;;;23.57;22.54;102741.28;5048239;28;20033;-76
2021/04/17 10:25:49;;;;;;;10.80;6.32;;;;;;;23.38;24.24;102734.38;5049431;28;20037;-75
2021/04/17 10:28:15;;;;;;;10.25;4.15;;;;;;;23.49;24.34;102743.03;5031707;28;20048;-82
2021/04/17 10:30:43;;;;;;;13.73;8.50;;;;;;;23.87;22.71;102747.34;5048146;28;20037;-80
2021/04/17 10:33:23;;;;;;;14.95;9.52;;;;;;;23.27;24.96;102733.22;5033233;28;20037;-82
2021/04/17 10:35:51;;;;;;;5.05;2.92;;;;;;;23.40;24.60;102728.44;5017374;28;20037;-84
2021/04/17 10:38:41;;;;;;;8.30;3.33;;;;;;;23.79;23.45;102710.88;5034301;28;20033;-84
2021/04/17 10:41:06;;;;;;;6.40;3.17;;;;;;;23.92;24.26;102717.22;5066989;28;20031;-86
2021/04/17 10:43:33;;;;;;;11.02;5.93;;;;;;;23.67;24.75;102708.16;5034236;28;20033;-82
2021/04/17 10:46:05;;;;;;;13.30;4.35;;;;;;;23.36;26.05;102719.97;5050627;28;20033;-85
2021/04/17 10:48:42;;;;;;;8.55;5.10;;;;;;;23.07;26.04;102706.31;5031621;28;20368;-84
2021/04/17 10:51:18;;;;;;;6.90;5.05;;;;;;;23.48;25.51;102705.16;5049745;28;20108;-87
2021/04/17 10:53:47;;;;;;;8.52;3.47;;;;;;;23.45;25.83;102711.47;5034457;28;20374;-87
2021/04/17 10:56:18;;;;;;;7.93;3.53;;;;;;;23.06;26.83;102699.13;5033443;28;20039;-85
2021/04/17 10:58:48;;;;;;;9.15;5.15;;;;;;;22.94;27.10;102686.81;5037343;28;20054;-83
2021/04/17 11:01:21;;;;;;;5.50;3.78;;;;;;;23.39;26.57;102690.56;5050935;28;20051;-82
2021/04/17 11:03:51;;;;;;;8.68;3.00;;;;;;;23.37;26.93;102695.69;5037543;28;20028;-82
2021/04/17 11:06:18;;;;;;;9.25;3.75;;;;;;;23.93;26.20;102688.13;5039694;28;20035;-86
2021/04/17 11:08:45;;;;;;;6.07;3.10;;;;;;;23.56;26.79;102687.47;5039753;28;20552;-86
2021/04/17 11:11:13;;;;;;;17.67;4.78;;;;;;;23.79;26.32;102677.38;5039869;28;20036;-81
2021/04/17 11:13:43;;;;;;;8.85;4.28;;;;;;;23.80;26.29;102679.03;5045784;28;20020;-83
2021/04/17 11:16:14;;;;;;;10.80;3.45;;;;;;;24.01;25.60;102683.53;5052807;28;20083;-84
2021/04/17 11:18:44;;;;;;;8.77;3.88;;;;;;;24.49;24.79;102670.44;5042334;28;20091;-83
2021/04/17 11:21:12;;;;;;;;;;;;;;;24.27;24.99;102663.47;5048948;28;20057;-84
2021/04/17 11:23:49;;;;;;;6.72;3.70;;;;;;;24.44;24.85;102670.72;5042705;28;20011;-86
2021/04/17 11:26:23;;;;;;;7.93;3.63;;;;;;;24.36;23.74;102666.94;5025114;28;20514;-86